Latest Weather Observations for Horsley Park

IDN60801

Issued at 8:03 am EST Tuesday 7 July 2015 (issued every 30 minutes, with the page automatically refreshed every 10 minutes)

About weather observations | Map of weather stations | Latest weather observations for NSW | Other Formats
Station Details ID: 067119 Name: HORSLEY PARK EQUESTRIAN CENTRE AWS Lat: -33.85 Lon: 150.86 Height: 100.0 m
Data from the previous 72 hours. | See also: Recent months at Horsley Park
Date/Time
EST
Temp
°C
App
Temp
°C
Dew
Point
Rel
Hum
%
Delta-T
°C
Wind Press
QNH
hPa
Press
MSL
hPa
Rain
since 9 am
mm
Dir
 
Spd
km/h
Gust
km/h
Spd
kts
Gust
kts
07/08:00am 5.2 3.6 2.6 83 1.1 CALM 0 0 0 0 - - 0.0
07/07:30am 3.8 1.9 0.8 81 1.2 CALM 0 6 0 3 - - 0.0
07/07:00am 7.8 5.1 2.7 70 2.1 WSW 6 9 3 5 - - 0.0
07/06:30am 7.6 4.9 3.5 75 1.8 SW 7 13 4 7 - - 0.0
07/06:00am 3.0 1.2 1.5 90 0.6 CALM 0 2 0 1 - - 0.0
07/05:30am 3.0 0.0 0.9 86 0.8 WSW 6 9 3 5 - - 0.0
07/05:00am 2.5 0.6 0.6 87 0.7 CALM 0 4 0 2 - - 0.0
07/04:30am 3.0 1.2 1.1 87 0.7 CALM 0 0 0 0 - - 0.0
07/04:00am 3.9 1.6 0.4 78 1.3 WSW 2 4 1 2 - - 0.0
07/03:30am 5.9 3.0 1.2 72 1.9 W 6 7 3 4 - - 0.0
07/03:00am 4.1 1.4 0.6 78 1.3 W 4 7 2 4 - - 0.0
07/02:30am 5.1 2.5 0.9 74 1.6 WNW 4 6 2 3 - - 0.0
07/02:00am 7.4 4.5 1.3 65 2.5 W 6 9 3 5 - - 0.0
07/01:30am 7.4 4.5 1.3 65 2.5 W 6 11 3 6 - - 0.0
07/01:00am 7.5 4.6 1.4 65 2.5 W 6 7 3 4 - - 0.0
07/12:30am 7.4 4.5 1.3 65 2.5 WSW 6 7 3 4 - - 0.0
07/12:00am 7.8 4.4 1.6 65 2.5 WSW 9 13 5 7 - - 0.0
 
Date/Time
EST
Temp
°C
App
Temp
°C
Dew
Point
Rel
Hum
%
Delta-T
°C
Wind Press
QNH
hPa
Press
MSL
hPa
Rain
since 9 am
mm
Dir
 
Spd
km/h
Gust
km/h
Spd
kts
Gust
kts
06/11:30pm 5.8 2.7 1.5 74 1.7 SW 7 9 4 5 - - 0.0
06/11:00pm 4.5 2.0 1.4 80 1.2 SSW 4 6 2 3 - - 0.0
06/10:30pm 4.1 1.5 0.8 79 1.3 WSW 4 6 2 3 - - 0.0
06/10:00pm 4.2 2.4 0.9 79 1.3 CALM 0 0 0 0 - - 0.0
06/09:30pm 4.5 2.6 0.6 76 1.5 CALM 0 0 0 0 - - 0.0
06/09:00pm 5.0 2.4 0.9 75 1.6 W 4 6 2 3 - - 0.0
06/08:30pm 7.1 4.4 0.5 63 2.6 W 4 6 2 3 - - 0.0
06/08:00pm 8.3 5.7 0.8 59 3.0 W 4 7 2 4 - - 0.0
06/07:30pm 8.9 5.8 1.1 58 3.2 W 7 11 4 6 - - 0.0
06/07:00pm 9.1 6.1 1.0 57 3.3 WSW 6 9 3 5 - - 0.0
06/06:30pm 9.7 6.2 1.4 56 3.5 WSW 9 13 5 7 - - 0.0
06/06:00pm 9.9 6.9 0.8 53 3.7 SW 6 9 3 5 - - 0.0
06/05:30pm 11.5 7.1 0.6 47 4.5 WSW 13 20 7 11 - - 0.0
06/05:00pm 12.2 7.0 0.3 44 4.9 SW 17 28 9 15 - - 0.0
06/04:30pm 13.3 8.5 0.3 41 5.5 SW 15 26 8 14 - - 0.0
06/04:00pm 14.2 10.0 1.5 42 5.5 SW 13 22 7 12 - - 0.0
06/03:30pm 15.1 11.3 2.0 41 5.8 WSW 11 20 6 11 - - 0.0
06/03:00pm 16.2 13.5 2.6 40 6.2 W 6 9 3 5 - - 0.0
06/02:30pm 16.2 13.2 1.9 38 6.4 WNW 7 13 4 7 - - 0.0
06/02:00pm 15.9 13.0 2.7 41 6.0 W 7 15 4 8 - - 0.0
06/01:30pm 15.6 11.8 1.7 39 6.2 W 11 19 6 10 - - 0.0
06/01:00pm 15.1 11.7 1.6 40 5.9 W 9 22 5 12 - - 0.0
06/12:30pm 14.5 10.1 0.4 38 6.0 W 13 20 7 11 - - 0.0
06/12:00pm 14.0 10.6 1.6 43 5.4 W 9 19 5 10 - - 0.0
06/11:30am 13.1 9.6 1.5 45 5.0 WSW 9 20 5 11 - - 0.0
06/11:00am 11.8 8.0 1.7 50 4.3 WSW 11 20 6 11 - - 0.0
06/10:30am 11.2 8.2 1.7 52 4.0 WSW 7 13 4 7 - - 0.0
06/10:00am 10.6 8.2 2.4 57 3.5 WSW 4 9 2 5 - - 0.0
06/09:30am 9.5 8.3 4.5 71 2.2 CALM 0 4 0 2 - - 0.0
06/09:00am 7.3 6.2 5.0 85 1.0 CALM 0 0 0 0 - - 0.2
06/08:30am 5.0 3.7 4.1 94 0.4 CALM 0 0 0 0 - - 0.2
06/08:00am 3.5 2.0 3.2 98 0.1 CALM 0 0 0 0 - - 0.0
06/07:30am 1.8 0.0 1.4 97 0.2 CALM 0 0 0 0 - - 0.0
06/07:00am 1.1 -0.8 0.7 97 0.1 CALM 0 0 0 0 - - 0.0
06/06:30am 1.8 0.0 1.4 97 0.2 CALM 0 0 0 0 - - 0.0
06/06:00am 1.9 0.1 1.5 97 0.2 CALM 0 0 0 0 - - 0.0
06/05:30am 2.2 0.5 1.9 98 0.1 CALM 0 0 0 0 - - 0.0
06/05:00am 2.6 1.0 2.3 98 0.1 CALM 0 0 0 0 - - 0.0
06/04:30am 2.6 1.0 2.2 97 0.2 CALM 0 0 0 0 - - 0.0
06/04:00am 4.0 2.6 3.7 98 0.1 CALM 0 0 0 0 - - 0.0
06/03:30am 3.6 2.2 3.3 98 0.1 CALM 0 0 0 0 - - 0.0
06/03:00am 2.9 1.3 2.5 97 0.2 CALM 0 0 0 0 - - 0.0
06/02:30am 3.3 1.7 2.7 96 0.2 CALM 0 0 0 0 - - 0.0
06/02:00am 3.0 1.4 2.3 95 0.3 CALM 0 0 0 0 - - 0.0
06/01:30am 3.5 2.0 2.8 95 0.3 CALM 0 0 0 0 - - 0.0
06/01:00am 3.7 2.2 3.0 95 0.3 CALM 0 0 0 0 - - 0.0
06/12:30am 3.9 2.4 3.0 94 0.4 CALM 0 0 0 0 - - 0.0
06/12:00am 3.9 2.3 2.7 92 0.5 CALM 0 0 0 0 - - 0.0
 
Date/Time
EST
Temp
°C
App
Temp
°C
Dew
Point
Rel
Hum
%
Delta-T
°C
Wind Press
QNH
hPa
Press
MSL
hPa
Rain
since 9 am
mm
Dir
 
Spd
km/h
Gust
km/h
Spd
kts
Gust
kts
05/11:30pm 4.4 2.9 3.1 91 0.5 CALM 0 0 0 0 - - 0.0
05/11:00pm 4.6 3.1 2.8 88 0.7 CALM 0 0 0 0 - - 0.0
05/10:30pm 5.2 3.6 2.6 83 1.1 CALM 0 0 0 0 - - 0.0
05/10:00pm 5.8 4.2 2.6 80 1.3 CALM 0 2 0 1 - - 0.0
05/09:30pm 8.6 6.4 3.2 69 2.3 WSW 4 7 2 4 - - 0.0
05/09:00pm 8.7 6.2 3.7 71 2.2 SW 6 7 3 4 - - 0.0
05/08:30pm 8.3 6.8 3.2 70 2.2 CALM 0 0 0 0 - - 0.0
05/08:00pm 7.5 5.8 1.6 66 2.4 CALM 0 0 0 0 - - 0.0
05/07:30pm 9.1 7.3 1.5 59 3.2 CALM 0 0 0 0 - - 0.0
05/07:00pm 8.8 7.2 2.2 63 2.8 CALM 0 0 0 0 - - 0.0
05/06:30pm 8.8 7.4 3.6 70 2.3 CALM 0 0 0 0 - - 0.0
05/06:00pm 8.0 6.6 3.7 74 1.9 CALM 0 0 0 0 - - 0.0
05/05:30pm 9.5 8.2 4.1 69 2.4 CALM 0 0 0 0 - - 0.0
05/05:00pm 10.7 9.4 4.2 64 2.9 CALM 0 0 0 0 - - 0.0
05/04:30pm 12.7 11.4 3.9 55 4.0 CALM 0 0 0 0 - - 0.0
05/04:00pm 13.9 12.4 2.8 47 5.0 CALM 0 0 0 0 - - 0.0
05/03:30pm 15.1 13.2 3.0 44 5.5 NNE 2 6 1 3 - - 0.0
05/03:00pm 15.6 13.2 2.4 41 5.9 N 4 9 2 5 - - 0.0
05/02:30pm 15.7 13.6 1.8 39 6.2 NNE 2 7 1 4 - - 0.0
05/02:00pm 16.4 14.5 3.1 41 6.1 N 2 6 1 3 - - 0.0
05/01:30pm 16.1 14.0 1.8 38 6.4 N 2 6 1 3 - - 0.0
05/01:00pm 15.2 12.8 2.4 42 5.7 N 4 6 2 3 - - 0.0
05/12:30pm 15.2 13.3 3.0 44 5.5 NNW 2 7 1 4 - - 0.0
05/12:00pm 13.5 10.9 1.2 43 5.3 W 4 7 2 4 - - 0.0
05/11:30am 12.4 9.9 1.7 48 4.6 WNW 4 7 2 4 - - 0.0
05/11:00am 11.4 9.4 2.2 53 4.0 WSW 2 6 1 3 - - 0.0
05/10:30am 10.7 8.3 2.0 55 3.7 WNW 4 6 2 3 - - 0.0
05/10:00am 9.2 6.9 2.8 64 2.7 W 4 6 2 3 - - 0.0
05/09:30am 8.1 5.4 2.8 69 2.2 WNW 6 7 3 4 - - 0.0
05/09:00am 6.4 4.6 3.6 82 1.2 NW 2 6 1 3 - - 0.0
05/08:30am 5.3 4.2 4.9 97 0.2 CALM 0 0 0 0 - - 0.0
05/08:00am 3.0 1.5 2.9 99 0.0 CALM 0 0 0 0 - - 0.0
05/07:30am 1.6 -0.2 1.2 97 0.2 CALM 0 0 0 0 - - 0.0
05/07:00am 1.3 -0.5 0.9 97 0.2 CALM 0 0 0 0 - - 0.0
05/06:30am 1.0 -0.9 0.6 97 0.1 CALM 0 0 0 0 - - 0.0
05/06:00am 1.2 -0.7 0.6 96 0.2 CALM 0 0 0 0 - - 0.0
05/05:30am 1.0 -0.9 0.4 96 0.2 CALM 0 0 0 0 - - 0.0
05/05:00am 1.2 -0.7 0.6 96 0.2 CALM 0 0 0 0 - - 0.0
05/04:30am 1.4 -0.5 0.7 95 0.3 CALM 0 0 0 0 - - 0.0
05/04:00am 1.3 -0.6 0.4 94 0.3 CALM 0 0 0 0 - - 0.0
05/03:30am 1.7 -0.2 0.8 94 0.3 CALM 0 0 0 0 - - 0.0
05/03:00am 1.6 -0.3 0.6 93 0.4 CALM 0 0 0 0 - - 0.0
05/02:30am 2.0 0.1 0.7 91 0.5 CALM 0 2 0 1 - - 0.0
05/02:00am 2.5 0.7 0.9 89 0.6 CALM 0 0 0 0 - - 0.0
05/01:30am 3.0 0.7 0.4 83 1.0 W 2 4 1 2 - - 0.0
05/01:00am 4.7 2.2 1.4 79 1.3 WSW 4 7 2 4 - - 0.0
05/12:30am 5.5 2.7 1.8 77 1.5 SW 6 9 3 5 - - 0.0
05/12:00am 4.3 1.5 2.0 85 0.9 SW 6 6 3 3 - - 0.0
 
Date/Time
EST
Temp
°C
App
Temp
°C
Dew
Point
Rel
Hum
%
Delta-T
°C
Wind Press
QNH
hPa
Press
MSL
hPa
Rain
since 9 am
mm
Dir
 
Spd
km/h
Gust
km/h
Spd
kts
Gust
kts
04/11:30pm 5.2 3.0 1.3 76 1.5 W 2 4 1 2 - - 0.0
04/11:00pm 6.3 3.8 1.4 71 2.0 W 4 6 2 3 - - 0.0
04/10:30pm 7.8 4.7 1.4 64 2.6 WSW 7 15 4 8 - - 0.0
04/10:00pm 8.4 4.6 1.8 63 2.7 WSW 11 15 6 8 - - 0.0
04/09:30pm 7.1 4.1 1.0 65 2.4 SW 6 7 3 4 - - 0.0
04/09:00pm 8.8 5.8 1.0 58 3.2 SW 6 9 3 5 - - 0.0
04/08:30pm 9.3 5.9 1.7 59 3.2 SW 9 11 5 6 - - 0.0
04/08:00pm 7.1 5.5 2.2 71 2.0 CALM 0 0 0 0 - - 0.0
04/07:30pm 7.4 5.4 2.3 70 2.1 SSE 2 4 1 2 - - 0.0
04/07:00pm 7.4 4.6 2.3 70 2.1 SSE 6 6 3 3 - - 0.0
04/06:30pm 8.6 5.8 2.2 64 2.7 SE 6 6 3 3 - - 0.0
04/06:00pm 8.2 5.7 1.6 63 2.7 SSE 4 9 2 5 - - 0.0
04/05:30pm 9.0 6.6 1.9 61 3.0 SW 4 6 2 3 - - 0.0
04/05:00pm 10.6 9.0 2.7 58 3.4 CALM 0 0 0 0 - - 0.0
04/04:30pm 13.8 12.0 1.5 43 5.3 CALM 0 0 0 0 - - 0.0
04/04:00pm 13.9 11.2 0.5 40 5.7 SW 4 6 2 3 - - 0.0
04/03:30pm 14.4 11.4 0.6 39 5.9 SSE 6 7 3 4 - - 0.0
04/03:00pm 15.2 12.2 0.6 37 6.3 SW 6 11 3 6 - - 0.0
04/02:30pm 15.6 13.2 -0.2 34 6.7 W 2 11 1 6 - - 0.0
04/02:00pm 14.0 10.8 -0.4 37 6.0 SE 6 9 3 5 - - 0.0
04/01:30pm 13.6 10.8 -0.1 39 5.7 S 4 9 2 5 - - 0.0
04/01:00pm 13.4 11.4 2.3 47 4.9 SSE 2 6 1 3 - - 0.0
04/12:30pm 13.0 11.5 2.8 50 4.5 CALM 0 4 0 2 - - 0.0
04/12:00pm 12.0 10.0 2.5 52 4.1 NW 2 6 1 3 - - 0.0
04/11:30am 10.7 8.9 3.3 60 3.2 NW 2 6 1 3 - - 0.0
04/11:00am 10.7 8.8 3.0 59 3.4 N 2 6 1 3 - - 0.0
04/10:30am 8.7 6.4 2.5 65 2.6 WNW 4 6 2 3 - - 0.0
04/10:00am 7.6 5.3 2.9 72 2.0 W 4 6 2 3 - - 0.0
04/09:30am 7.0 4.8 3.4 78 1.5 WSW 4 6 2 3 - - 0.0
04/09:00am 6.4 5.5 6.0 97 0.2 CALM 0 4 0 2 - - 0.0
04/08:30am 4.1 2.8 4.0 99 0.0 CALM 0 0 0 0 - - 0.0

Other Formats:

Comma delimited format used in spreadsheet applications
http://www.bom.gov.au/fwo/IDN60801/IDN60801.94760.axf

JavaScript Object Notation format (JSON) in row-major order
http://www.bom.gov.au/fwo/IDN60801/IDN60801.94760.json